sensor_id;sensor_type;location;lat;lon;timestamp;P1;durP1;ratioP1;P2;durP2;ratioP2
70985;SDS011;58645;43.068;25.610;2022-08-19T00:00:06;10.52;;;7.43;;
70985;SDS011;58645;43.068;25.610;2022-08-19T00:02:34;13.13;;;7.28;;
70985;SDS011;58645;43.068;25.610;2022-08-19T00:05:00;8.85;;;6.93;;
70985;SDS011;58645;43.068;25.610;2022-08-19T00:09:51;11.55;;;7.50;;
70985;SDS011;58645;43.068;25.610;2022-08-19T00:12:17;12.43;;;8.32;;
70985;SDS011;58645;43.068;25.610;2022-08-19T00:14:43;9.20;;;7.10;;
70985;SDS011;58645;43.068;25.610;2022-08-19T00:17:09;9.13;;;7.20;;
70985;SDS011;58645;43.068;25.610;2022-08-19T00:19:35;12.82;;;7.70;;
70985;SDS011;58645;43.068;25.610;2022-08-19T00:22:02;9.80;;;7.68;;
70985;SDS011;58645;43.068;25.610;2022-08-19T00:24:30;12.40;;;8.57;;
70985;SDS011;58645;43.068;25.610;2022-08-19T00:26:56;10.52;;;8.52;;
70985;SDS011;58645;43.068;25.610;2022-08-19T00:29:23;11.05;;;8.35;;
70985;SDS011;58645;43.068;25.610;2022-08-19T00:31:50;10.02;;;8.35;;
70985;SDS011;58645;43.068;25.610;2022-08-19T00:34:19;11.00;;;8.80;;
70985;SDS011;58645;43.068;25.610;2022-08-19T00:36:46;12.73;;;8.57;;
70985;SDS011;58645;43.068;25.610;2022-08-19T00:39:13;12.15;;;8.73;;
70985;SDS011;58645;43.068;25.610;2022-08-19T00:41:41;12.43;;;8.07;;
70985;SDS011;58645;43.068;25.610;2022-08-19T00:44:12;13.35;;;8.95;;
70985;SDS011;58645;43.068;25.610;2022-08-19T00:46:41;13.00;;;8.65;;
70985;SDS011;58645;43.068;25.610;2022-08-19T00:49:12;11.77;;;8.45;;
70985;SDS011;58645;43.068;25.610;2022-08-19T00:52:12;11.68;;;8.35;;
70985;SDS011;58645;43.068;25.610;2022-08-19T00:54:41;10.73;;;7.80;;
70985;SDS011;58645;43.068;25.610;2022-08-19T00:57:09;12.43;;;8.27;;
70985;SDS011;58645;43.068;25.610;2022-08-19T00:59:40;12.23;;;8.30;;
70985;SDS011;58645;43.068;25.610;2022-08-19T01:02:11;11.35;;;8.38;;
70985;SDS011;58645;43.068;25.610;2022-08-19T01:04:37;11.38;;;7.38;;
70985;SDS011;58645;43.068;25.610;2022-08-19T01:07:03;12.70;;;8.43;;
70985;SDS011;58645;43.068;25.610;2022-08-19T01:11:55;12.45;;;7.70;;
70985;SDS011;58645;43.068;25.610;2022-08-19T01:14:21;11.23;;;7.82;;
70985;SDS011;58645;43.068;25.610;2022-08-19T01:16:48;11.45;;;9.07;;
70985;SDS011;58645;43.068;25.610;2022-08-19T01:19:24;11.32;;;8.50;;
70985;SDS011;58645;43.068;25.610;2022-08-19T01:22:59;10.93;;;8.88;;
70985;SDS011;58645;43.068;25.610;2022-08-19T01:25:02;11.60;;;8.45;;
70985;SDS011;58645;43.068;25.610;2022-08-19T01:27:36;12.00;;;8.95;;
70985;SDS011;58645;43.068;25.610;2022-08-19T01:30:05;14.35;;;9.85;;
70985;SDS011;58645;43.068;25.610;2022-08-19T01:32:32;14.95;;;10.55;;
70985;SDS011;58645;43.068;25.610;2022-08-19T01:34:58;14.73;;;10.57;;
70985;SDS011;58645;43.068;25.610;2022-08-19T01:37:26;15.85;;;11.13;;
70985;SDS011;58645;43.068;25.610;2022-08-19T01:39:52;14.48;;;10.68;;
70985;SDS011;58645;43.068;25.610;2022-08-19T01:42:18;14.23;;;10.60;;
70985;SDS011;58645;43.068;25.610;2022-08-19T01:44:44;14.55;;;10.15;;
70985;SDS011;58645;43.068;25.610;2022-08-19T01:49:36;14.25;;;9.40;;
70985;SDS011;58645;43.068;25.610;2022-08-19T01:52:03;14.25;;;10.00;;
70985;SDS011;58645;43.068;25.610;2022-08-19T01:54:30;12.77;;;9.23;;
70985;SDS011;58645;43.068;25.610;2022-08-19T01:56:58;11.80;;;8.38;;
70985;SDS011;58645;43.068;25.610;2022-08-19T01:59:28;13.38;;;9.00;;
70985;SDS011;58645;43.068;25.610;2022-08-19T02:01:56;14.50;;;8.30;;
70985;SDS011;58645;43.068;25.610;2022-08-19T02:04:22;13.10;;;8.18;;
70985;SDS011;58645;43.068;25.610;2022-08-19T02:09:14;10.93;;;8.23;;
70985;SDS011;58645;43.068;25.610;2022-08-19T02:11:39;12.18;;;8.30;;
70985;SDS011;58645;43.068;25.610;2022-08-19T02:14:07;10.45;;;7.95;;
70985;SDS011;58645;43.068;25.610;2022-08-19T02:16:33;10.48;;;7.28;;
70985;SDS011;58645;43.068;25.610;2022-08-19T02:19:00;12.95;;;8.10;;
70985;SDS011;58645;43.068;25.610;2022-08-19T02:21:25;11.25;;;7.82;;
70985;SDS011;58645;43.068;25.610;2022-08-19T02:23:52;11.88;;;8.32;;
70985;SDS011;58645;43.068;25.610;2022-08-19T02:26:18;10.35;;;8.07;;
70985;SDS011;58645;43.068;25.610;2022-08-19T02:28:44;10.23;;;8.05;;
70985;SDS011;58645;43.068;25.610;2022-08-19T02:31:12;11.63;;;8.57;;
70985;SDS011;58645;43.068;25.610;2022-08-19T02:33:42;9.80;;;8.10;;
70985;SDS011;58645;43.068;25.610;2022-08-19T02:36:10;10.55;;;7.88;;
70985;SDS011;58645;43.068;25.610;2022-08-19T02:38:36;10.27;;;8.18;;
70985;SDS011;58645;43.068;25.610;2022-08-19T02:41:04;11.05;;;8.52;;
70985;SDS011;58645;43.068;25.610;2022-08-19T02:43:32;11.50;;;8.38;;
70985;SDS011;58645;43.068;25.610;2022-08-19T02:46:10;12.02;;;8.05;;
70985;SDS011;58645;43.068;25.610;2022-08-19T02:48:46;12.05;;;8.10;;
70985;SDS011;58645;43.068;25.610;2022-08-19T02:51:16;10.65;;;8.13;;
70985;SDS011;58645;43.068;25.610;2022-08-19T02:53:44;10.05;;;7.65;;
70985;SDS011;58645;43.068;25.610;2022-08-19T02:56:11;13.05;;;8.25;;
70985;SDS011;58645;43.068;25.610;2022-08-19T02:58:37;11.25;;;8.07;;
70985;SDS011;58645;43.068;25.610;2022-08-19T03:01:02;9.35;;;7.60;;
70985;SDS011;58645;43.068;25.610;2022-08-19T03:03:28;11.50;;;8.10;;
70985;SDS011;58645;43.068;25.610;2022-08-19T03:06:08;14.18;;;7.78;;
70985;SDS011;58645;43.068;25.610;2022-08-19T03:08:38;10.70;;;7.95;;
70985;SDS011;58645;43.068;25.610;2022-08-19T03:11:05;11.80;;;8.20;;
70985;SDS011;58645;43.068;25.610;2022-08-19T03:13:30;11.55;;;8.20;;
70985;SDS011;58645;43.068;25.610;2022-08-19T03:15:56;10.63;;;8.13;;
70985;SDS011;58645;43.068;25.610;2022-08-19T03:18:22;11.32;;;8.07;;
70985;SDS011;58645;43.068;25.610;2022-08-19T03:20:49;12.98;;;8.68;;
70985;SDS011;58645;43.068;25.610;2022-08-19T03:23:18;12.27;;;8.23;;
70985;SDS011;58645;43.068;25.610;2022-08-19T03:25:47;12.55;;;8.70;;
70985;SDS011;58645;43.068;25.610;2022-08-19T03:28:15;11.45;;;8.75;;
70985;SDS011;58645;43.068;25.610;2022-08-19T03:30:41;10.57;;;8.57;;
70985;SDS011;58645;43.068;25.610;2022-08-19T03:33:21;12.15;;;9.15;;
70985;SDS011;58645;43.068;25.610;2022-08-19T03:35:47;13.90;;;9.70;;
70985;SDS011;58645;43.068;25.610;2022-08-19T03:38:25;12.88;;;9.77;;
70985;SDS011;58645;43.068;25.610;2022-08-19T03:40:50;13.38;;;9.02;;
70985;SDS011;58645;43.068;25.610;2022-08-19T03:43:16;12.93;;;8.90;;
70985;SDS011;58645;43.068;25.610;2022-08-19T03:48:08;13.43;;;9.82;;
70985;SDS011;58645;43.068;25.610;2022-08-19T03:50:38;13.18;;;8.88;;
70985;SDS011;58645;43.068;25.610;2022-08-19T03:53:04;14.88;;;9.20;;
70985;SDS011;58645;43.068;25.610;2022-08-19T03:55:31;12.70;;;9.32;;
70985;SDS011;58645;43.068;25.610;2022-08-19T03:57:57;12.95;;;9.43;;
70985;SDS011;58645;43.068;25.610;2022-08-19T04:00:23;16.08;;;11.75;;
70985;SDS011;58645;43.068;25.610;2022-08-19T04:02:49;14.90;;;10.05;;
70985;SDS011;58645;43.068;25.610;2022-08-19T04:05:15;12.82;;;9.35;;
70985;SDS011;58645;43.068;25.610;2022-08-19T04:07:42;15.80;;;10.02;;
70985;SDS011;58645;43.068;25.610;2022-08-19T04:10:08;14.02;;;9.85;;
70985;SDS011;58645;43.068;25.610;2022-08-19T04:12:34;11.77;;;9.63;;
70985;SDS011;58645;43.068;25.610;2022-08-19T04:15:00;12.07;;;9.23;;
70985;SDS011;58645;43.068;25.610;2022-08-19T04:17:28;12.65;;;8.80;;
70985;SDS011;58645;43.068;25.610;2022-08-19T04:19:54;12.02;;;8.88;;
70985;SDS011;58645;43.068;25.610;2022-08-19T04:22:19;11.60;;;8.60;;
70985;SDS011;58645;43.068;25.610;2022-08-19T04:27:11;11.60;;;9.00;;
70985;SDS011;58645;43.068;25.610;2022-08-19T04:29:37;11.30;;;9.02;;
70985;SDS011;58645;43.068;25.610;2022-08-19T04:32:04;14.32;;;9.30;;
70985;SDS011;58645;43.068;25.610;2022-08-19T04:34:30;14.60;;;9.63;;
70985;SDS011;58645;43.068;25.610;2022-08-19T04:36:56;15.02;;;9.88;;
70985;SDS011;58645;43.068;25.610;2022-08-19T04:39:24;14.45;;;10.20;;
70985;SDS011;58645;43.068;25.610;2022-08-19T04:42:14;18.40;;;11.20;;
70985;SDS011;58645;43.068;25.610;2022-08-19T04:45:00;13.85;;;10.20;;
70985;SDS011;58645;43.068;25.610;2022-08-19T04:47:28;16.00;;;11.60;;
70985;SDS011;58645;43.068;25.610;2022-08-19T04:49:56;19.05;;;12.95;;
70985;SDS011;58645;43.068;25.610;2022-08-19T04:52:22;17.40;;;11.38;;
70985;SDS011;58645;43.068;25.610;2022-08-19T04:54:48;17.67;;;12.63;;
70985;SDS011;58645;43.068;25.610;2022-08-19T04:59:40;25.52;;;15.60;;
70985;SDS011;58645;43.068;25.610;2022-08-19T05:02:06;28.20;;;19.75;;
70985;SDS011;58645;43.068;25.610;2022-08-19T05:04:34;43.60;;;25.73;;
70985;SDS011;58645;43.068;25.610;2022-08-19T05:07:03;35.22;;;22.45;;
70985;SDS011;58645;43.068;25.610;2022-08-19T05:09:29;36.28;;;22.02;;
70985;SDS011;58645;43.068;25.610;2022-08-19T05:14:21;26.05;;;19.52;;
70985;SDS011;58645;43.068;25.610;2022-08-19T05:16:46;22.50;;;16.55;;
70985;SDS011;58645;43.068;25.610;2022-08-19T05:21:56;10.98;;;8.43;;
70985;SDS011;58645;43.068;25.610;2022-08-19T05:24:42;11.80;;;8.18;;
70985;SDS011;58645;43.068;25.610;2022-08-19T05:29:34;12.85;;;10.05;;
70985;SDS011;58645;43.068;25.610;2022-08-19T05:32:00;13.00;;;10.00;;
70985;SDS011;58645;43.068;25.610;2022-08-19T05:34:30;12.05;;;8.05;;
70985;SDS011;58645;43.068;25.610;2022-08-19T05:36:58;13.05;;;8.18;;
70985;SDS011;58645;43.068;25.610;2022-08-19T05:39:25;12.85;;;8.77;;
70985;SDS011;58645;43.068;25.610;2022-08-19T05:41:57;14.80;;;8.00;;
70985;SDS011;58645;43.068;25.610;2022-08-19T05:44:26;9.35;;;7.75;;
70985;SDS011;58645;43.068;25.610;2022-08-19T05:46:57;14.25;;;9.27;;
70985;SDS011;58645;43.068;25.610;2022-08-19T05:49:24;8.45;;;7.22;;
70985;SDS011;58645;43.068;25.610;2022-08-19T05:51:52;9.10;;;7.97;;
70985;SDS011;58645;43.068;25.610;2022-08-19T05:54:21;11.55;;;9.02;;
70985;SDS011;58645;43.068;25.610;2022-08-19T05:56:48;10.20;;;7.68;;
70985;SDS011;58645;43.068;25.610;2022-08-19T05:59:15;9.13;;;6.82;;
70985;SDS011;58645;43.068;25.610;2022-08-19T06:01:43;9.00;;;7.30;;
70985;SDS011;58645;43.068;25.610;2022-08-19T06:04:10;10.77;;;7.60;;
70985;SDS011;58645;43.068;25.610;2022-08-19T06:06:42;9.88;;;7.28;;
70985;SDS011;58645;43.068;25.610;2022-08-19T06:09:08;10.27;;;8.07;;
70985;SDS011;58645;43.068;25.610;2022-08-19T06:14:16;7.93;;;7.15;;
70985;SDS011;58645;43.068;25.610;2022-08-19T06:16:44;10.88;;;7.60;;
70985;SDS011;58645;43.068;25.610;2022-08-19T06:19:14;9.27;;;7.35;;
70985;SDS011;58645;43.068;25.610;2022-08-19T06:21:42;9.65;;;8.00;;
70985;SDS011;58645;43.068;25.610;2022-08-19T06:24:10;11.18;;;8.32;;
70985;SDS011;58645;43.068;25.610;2022-08-19T06:26:39;11.80;;;9.10;;
70985;SDS011;58645;43.068;25.610;2022-08-19T06:29:07;13.13;;;9.25;;
70985;SDS011;58645;43.068;25.610;2022-08-19T06:31:35;10.00;;;8.38;;
70985;SDS011;58645;43.068;25.610;2022-08-19T06:34:02;20.83;;;11.75;;
70985;SDS011;58645;43.068;25.610;2022-08-19T06:36:31;12.23;;;9.35;;
70985;SDS011;58645;43.068;25.610;2022-08-19T06:39:05;12.27;;;10.23;;
70985;SDS011;58645;43.068;25.610;2022-08-19T06:41:37;12.63;;;10.25;;
70985;SDS011;58645;43.068;25.610;2022-08-19T06:44:05;12.98;;;9.40;;
70985;SDS011;58645;43.068;25.610;2022-08-19T06:46:32;13.65;;;9.18;;
70985;SDS011;58645;43.068;25.610;2022-08-19T06:48:58;11.18;;;8.85;;
70985;SDS011;58645;43.068;25.610;2022-08-19T06:51:25;8.93;;;7.32;;
70985;SDS011;58645;43.068;25.610;2022-08-19T06:53:52;7.72;;;6.63;;
70985;SDS011;58645;43.068;25.610;2022-08-19T06:56:23;10.32;;;7.00;;
70985;SDS011;58645;43.068;25.610;2022-08-19T06:58:56;9.07;;;6.57;;
70985;SDS011;58645;43.068;25.610;2022-08-19T07:01:23;8.90;;;6.50;;
70985;SDS011;58645;43.068;25.610;2022-08-19T07:03:49;8.30;;;7.25;;
70985;SDS011;58645;43.068;25.610;2022-08-19T07:06:16;7.82;;;6.15;;
70985;SDS011;58645;43.068;25.610;2022-08-19T07:08:43;11.35;;;7.53;;
70985;SDS011;58645;43.068;25.610;2022-08-19T07:11:10;8.90;;;7.22;;
70985;SDS011;58645;43.068;25.610;2022-08-19T07:13:39;9.20;;;6.35;;
70985;SDS011;58645;43.068;25.610;2022-08-19T07:16:09;9.27;;;7.40;;
70985;SDS011;58645;43.068;25.610;2022-08-19T07:18:38;10.27;;;7.32;;
70985;SDS011;58645;43.068;25.610;2022-08-19T07:21:12;12.18;;;6.82;;
70985;SDS011;58645;43.068;25.610;2022-08-19T07:23:40;9.68;;;6.15;;
70985;SDS011;58645;43.068;25.610;2022-08-19T07:28:41;7.97;;;6.00;;
70985;SDS011;58645;43.068;25.610;2022-08-19T07:31:09;8.23;;;6.25;;
70985;SDS011;58645;43.068;25.610;2022-08-19T07:33:37;5.75;;;5.20;;
70985;SDS011;58645;43.068;25.610;2022-08-19T07:36:04;9.00;;;6.40;;
70985;SDS011;58645;43.068;25.610;2022-08-19T07:38:32;7.80;;;5.45;;
70985;SDS011;58645;43.068;25.610;2022-08-19T07:40:58;6.60;;;5.18;;
70985;SDS011;58645;43.068;25.610;2022-08-19T07:43:25;6.82;;;5.72;;
70985;SDS011;58645;43.068;25.610;2022-08-19T07:45:52;8.43;;;5.30;;
70985;SDS011;58645;43.068;25.610;2022-08-19T07:48:22;11.55;;;5.75;;
70985;SDS011;58645;43.068;25.610;2022-08-19T07:50:53;6.43;;;4.95;;
70985;SDS011;58645;43.068;25.610;2022-08-19T07:55:48;5.57;;;4.97;;
70985;SDS011;58645;43.068;25.610;2022-08-19T07:58:15;6.38;;;4.60;;
70985;SDS011;58645;43.068;25.610;2022-08-19T08:00:43;7.72;;;5.25;;
70985;SDS011;58645;43.068;25.610;2022-08-19T08:03:11;6.88;;;5.28;;
70985;SDS011;58645;43.068;25.610;2022-08-19T08:05:38;9.27;;;5.43;;
70985;SDS011;58645;43.068;25.610;2022-08-19T08:08:22;6.55;;;5.35;;
70985;SDS011;58645;43.068;25.610;2022-08-19T08:11:07;6.35;;;5.50;;
70985;SDS011;58645;43.068;25.610;2022-08-19T08:13:33;5.85;;;4.43;;
70985;SDS011;58645;43.068;25.610;2022-08-19T08:16:00;5.32;;;4.43;;
70985;SDS011;58645;43.068;25.610;2022-08-19T08:18:27;7.55;;;5.10;;
70985;SDS011;58645;43.068;25.610;2022-08-19T08:20:53;9.18;;;4.60;;
70985;SDS011;58645;43.068;25.610;2022-08-19T08:23:19;5.20;;;4.20;;
70985;SDS011;58645;43.068;25.610;2022-08-19T08:25:48;8.00;;;5.10;;
70985;SDS011;58645;43.068;25.610;2022-08-19T08:28:15;6.82;;;4.75;;
70985;SDS011;58645;43.068;25.610;2022-08-19T08:30:41;9.73;;;5.30;;
70985;SDS011;58645;43.068;25.610;2022-08-19T08:33:12;8.02;;;4.80;;
70985;SDS011;58645;43.068;25.610;2022-08-19T08:35:39;5.68;;;4.78;;
70985;SDS011;58645;43.068;25.610;2022-08-19T08:38:10;6.78;;;4.55;;
70985;SDS011;58645;43.068;25.610;2022-08-19T08:43:29;6.65;;;4.88;;
70985;SDS011;58645;43.068;25.610;2022-08-19T08:48:37;7.20;;;4.72;;
70985;SDS011;58645;43.068;25.610;2022-08-19T08:51:25;8.05;;;4.80;;
70985;SDS011;58645;43.068;25.610;2022-08-19T08:54:00;7.60;;;5.82;;
70985;SDS011;58645;43.068;25.610;2022-08-19T08:56:29;6.68;;;4.90;;
70985;SDS011;58645;43.068;25.610;2022-08-19T08:59:01;6.72;;;4.60;;
70985;SDS011;58645;43.068;25.610;2022-08-19T09:01:35;7.15;;;5.50;;
70985;SDS011;58645;43.068;25.610;2022-08-19T09:04:05;7.20;;;4.63;;
70985;SDS011;58645;43.068;25.610;2022-08-19T09:09:24;5.97;;;4.15;;
70985;SDS011;58645;43.068;25.610;2022-08-19T09:12:09;8.77;;;4.18;;
70985;SDS011;58645;43.068;25.610;2022-08-19T09:14:55;6.70;;;4.50;;
70985;SDS011;58645;43.068;25.610;2022-08-19T09:17:25;7.68;;;4.00;;
70985;SDS011;58645;43.068;25.610;2022-08-19T09:22:21;5.38;;;4.05;;
70985;SDS011;58645;43.068;25.610;2022-08-19T09:24:48;5.57;;;4.90;;
70985;SDS011;58645;43.068;25.610;2022-08-19T09:27:17;10.82;;;4.68;;
70985;SDS011;58645;43.068;25.610;2022-08-19T09:29:45;8.88;;;3.85;;
70985;SDS011;58645;43.068;25.610;2022-08-19T09:32:13;5.38;;;3.70;;
70985;SDS011;58645;43.068;25.610;2022-08-19T09:34:39;5.80;;;3.95;;
70985;SDS011;58645;43.068;25.610;2022-08-19T09:37:06;8.30;;;4.38;;
70985;SDS011;58645;43.068;25.610;2022-08-19T09:39:32;5.45;;;3.80;;
70985;SDS011;58645;43.068;25.610;2022-08-19T09:41:58;5.93;;;4.05;;
70985;SDS011;58645;43.068;25.610;2022-08-19T09:44:24;4.85;;;3.92;;
70985;SDS011;58645;43.068;25.610;2022-08-19T09:46:50;5.35;;;3.95;;
70985;SDS011;58645;43.068;25.610;2022-08-19T09:49:17;6.40;;;4.13;;
70985;SDS011;58645;43.068;25.610;2022-08-19T09:51:43;7.05;;;3.88;;
70985;SDS011;58645;43.068;25.610;2022-08-19T09:54:10;4.10;;;3.45;;
70985;SDS011;58645;43.068;25.610;2022-08-19T09:56:36;4.65;;;3.88;;
70985;SDS011;58645;43.068;25.610;2022-08-19T09:59:02;7.47;;;4.00;;
70985;SDS011;58645;43.068;25.610;2022-08-19T10:01:29;5.38;;;3.85;;
70985;SDS011;58645;43.068;25.610;2022-08-19T10:03:57;5.20;;;3.88;;
70985;SDS011;58645;43.068;25.610;2022-08-19T10:06:25;6.47;;;3.75;;
70985;SDS011;58645;43.068;25.610;2022-08-19T10:09:00;5.25;;;3.95;;
70985;SDS011;58645;43.068;25.610;2022-08-19T10:11:29;8.00;;;4.15;;
70985;SDS011;58645;43.068;25.610;2022-08-19T10:13:55;4.35;;;3.72;;
70985;SDS011;58645;43.068;25.610;2022-08-19T10:16:22;7.45;;;4.65;;
70985;SDS011;58645;43.068;25.610;2022-08-19T10:18:49;6.55;;;3.78;;
70985;SDS011;58645;43.068;25.610;2022-08-19T10:21:16;5.95;;;4.00;;
70985;SDS011;58645;43.068;25.610;2022-08-19T10:23:48;4.75;;;4.22;;
70985;SDS011;58645;43.068;25.610;2022-08-19T10:26:18;5.95;;;4.20;;
70985;SDS011;58645;43.068;25.610;2022-08-19T10:28:46;5.13;;;4.25;;
70985;SDS011;58645;43.068;25.610;2022-08-19T10:31:18;5.13;;;3.85;;
70985;SDS011;58645;43.068;25.610;2022-08-19T10:33:46;6.68;;;4.45;;
70985;SDS011;58645;43.068;25.610;2022-08-19T10:36:20;5.70;;;5.07;;
70985;SDS011;58645;43.068;25.610;2022-08-19T10:38:49;5.57;;;4.13;;
70985;SDS011;58645;43.068;25.610;2022-08-19T10:41:18;4.97;;;4.15;;
70985;SDS011;58645;43.068;25.610;2022-08-19T10:43:47;6.80;;;4.40;;
70985;SDS011;58645;43.068;25.610;2022-08-19T10:46:19;6.30;;;5.22;;
70985;SDS011;58645;43.068;25.610;2022-08-19T10:48:46;6.22;;;5.03;;
70985;SDS011;58645;43.068;25.610;2022-08-19T10:51:13;6.47;;;4.05;;
70985;SDS011;58645;43.068;25.610;2022-08-19T10:53:58;5.65;;;4.10;;
70985;SDS011;58645;43.068;25.610;2022-08-19T10:56:24;7.65;;;5.43;;
70985;SDS011;58645;43.068;25.610;2022-08-19T10:59:10;5.43;;;4.32;;
70985;SDS011;58645;43.068;25.610;2022-08-19T11:01:37;4.75;;;4.03;;
70985;SDS011;58645;43.068;25.610;2022-08-19T11:04:03;7.13;;;4.50;;
70985;SDS011;58645;43.068;25.610;2022-08-19T11:06:33;5.70;;;4.15;;
70985;SDS011;58645;43.068;25.610;2022-08-19T11:08:59;7.45;;;4.05;;
70985;SDS011;58645;43.068;25.610;2022-08-19T11:11:25;5.18;;;3.90;;
70985;SDS011;58645;43.068;25.610;2022-08-19T11:13:52;4.70;;;3.97;;
70985;SDS011;58645;43.068;25.610;2022-08-19T11:16:22;4.63;;;3.97;;
70985;SDS011;58645;43.068;25.610;2022-08-19T11:18:54;7.45;;;4.18;;
70985;SDS011;58645;43.068;25.610;2022-08-19T11:21:33;5.97;;;4.72;;
70985;SDS011;58645;43.068;25.610;2022-08-19T11:24:03;5.22;;;3.92;;
70985;SDS011;58645;43.068;25.610;2022-08-19T11:26:31;7.07;;;3.92;;
70985;SDS011;58645;43.068;25.610;2022-08-19T11:28:58;7.50;;;4.95;;
70985;SDS011;58645;43.068;25.610;2022-08-19T11:31:26;6.50;;;4.88;;
70985;SDS011;58645;43.068;25.610;2022-08-19T11:33:56;4.95;;;3.65;;
70985;SDS011;58645;43.068;25.610;2022-08-19T11:36:23;5.70;;;3.90;;
70985;SDS011;58645;43.068;25.610;2022-08-19T11:38:49;6.32;;;4.10;;
70985;SDS011;58645;43.068;25.610;2022-08-19T11:41:16;6.03;;;3.90;;
70985;SDS011;58645;43.068;25.610;2022-08-19T11:43:43;6.15;;;4.38;;
70985;SDS011;58645;43.068;25.610;2022-08-19T11:46:10;5.43;;;4.05;;
70985;SDS011;58645;43.068;25.610;2022-08-19T11:48:38;5.80;;;3.70;;
70985;SDS011;58645;43.068;25.610;2022-08-19T11:51:05;5.10;;;4.53;;
70985;SDS011;58645;43.068;25.610;2022-08-19T11:53:33;7.55;;;4.60;;
70985;SDS011;58645;43.068;25.610;2022-08-19T11:56:00;7.40;;;3.75;;
70985;SDS011;58645;43.068;25.610;2022-08-19T11:58:26;5.28;;;4.50;;
70985;SDS011;58645;43.068;25.610;2022-08-19T12:00:54;7.50;;;4.35;;
70985;SDS011;58645;43.068;25.610;2022-08-19T12:03:20;5.25;;;3.80;;
70985;SDS011;58645;43.068;25.610;2022-08-19T12:05:46;6.18;;;4.25;;
70985;SDS011;58645;43.068;25.610;2022-08-19T12:08:12;6.32;;;4.50;;
70985;SDS011;58645;43.068;25.610;2022-08-19T12:10:38;6.80;;;4.00;;
70985;SDS011;58645;43.068;25.610;2022-08-19T12:13:05;5.75;;;3.58;;
70985;SDS011;58645;43.068;25.610;2022-08-19T12:15:35;3.90;;;3.50;;
70985;SDS011;58645;43.068;25.610;2022-08-19T12:18:03;5.75;;;4.25;;
70985;SDS011;58645;43.068;25.610;2022-08-19T12:20:29;4.97;;;3.90;;
70985;SDS011;58645;43.068;25.610;2022-08-19T12:22:55;4.10;;;3.70;;
70985;SDS011;58645;43.068;25.610;2022-08-19T12:25:21;5.07;;;3.20;;
70985;SDS011;58645;43.068;25.610;2022-08-19T12:27:46;5.25;;;3.15;;
70985;SDS011;58645;43.068;25.610;2022-08-19T12:30:13;3.45;;;2.95;;
70985;SDS011;58645;43.068;25.610;2022-08-19T12:32:39;6.30;;;3.50;;
70985;SDS011;58645;43.068;25.610;2022-08-19T12:35:06;5.10;;;3.80;;
70985;SDS011;58645;43.068;25.610;2022-08-19T12:37:34;4.68;;;3.83;;
70985;SDS011;58645;43.068;25.610;2022-08-19T12:40:00;6.00;;;3.92;;
70985;SDS011;58645;43.068;25.610;2022-08-19T12:42:26;5.70;;;3.85;;
70985;SDS011;58645;43.068;25.610;2022-08-19T12:44:52;6.55;;;3.55;;
70985;SDS011;58645;43.068;25.610;2022-08-19T12:47:18;5.28;;;3.80;;
70985;SDS011;58645;43.068;25.610;2022-08-19T12:49:44;5.05;;;3.92;;
70985;SDS011;58645;43.068;25.610;2022-08-19T12:52:11;7.15;;;3.90;;
70985;SDS011;58645;43.068;25.610;2022-08-19T12:54:40;5.28;;;3.15;;
70985;SDS011;58645;43.068;25.610;2022-08-19T12:57:09;6.95;;;2.90;;
70985;SDS011;58645;43.068;25.610;2022-08-19T12:59:36;4.57;;;4.10;;
70985;SDS011;58645;43.068;25.610;2022-08-19T13:02:05;6.97;;;3.83;;
70985;SDS011;58645;43.068;25.610;2022-08-19T13:04:33;4.53;;;4.07;;
70985;SDS011;58645;43.068;25.610;2022-08-19T13:07:05;8.07;;;4.03;;
70985;SDS011;58645;43.068;25.610;2022-08-19T13:09:33;5.47;;;3.50;;
70985;SDS011;58645;43.068;25.610;2022-08-19T13:11:59;5.13;;;3.50;;
70985;SDS011;58645;43.068;25.610;2022-08-19T13:14:29;4.75;;;3.08;;
70985;SDS011;58645;43.068;25.610;2022-08-19T13:16:56;6.18;;;4.00;;
70985;SDS011;58645;43.068;25.610;2022-08-19T13:19:22;4.72;;;3.95;;
70985;SDS011;58645;43.068;25.610;2022-08-19T13:21:50;10.55;;;3.97;;
70985;SDS011;58645;43.068;25.610;2022-08-19T13:24:16;9.05;;;3.42;;
70985;SDS011;58645;43.068;25.610;2022-08-19T13:26:42;6.10;;;3.70;;
70985;SDS011;58645;43.068;25.610;2022-08-19T13:29:08;4.45;;;3.17;;
70985;SDS011;58645;43.068;25.610;2022-08-19T13:32:09;6.97;;;4.30;;
70985;SDS011;58645;43.068;25.610;2022-08-19T13:37:20;4.22;;;3.42;;
70985;SDS011;58645;43.068;25.610;2022-08-19T13:40:06;5.07;;;3.60;;
70985;SDS011;58645;43.068;25.610;2022-08-19T13:45:04;6.32;;;3.72;;
70985;SDS011;58645;43.068;25.610;2022-08-19T13:47:31;6.57;;;4.10;;
70985;SDS011;58645;43.068;25.610;2022-08-19T13:49:59;7.60;;;4.30;;
70985;SDS011;58645;43.068;25.610;2022-08-19T13:52:28;7.50;;;4.63;;
70985;SDS011;58645;43.068;25.610;2022-08-19T13:54:54;5.97;;;3.90;;
70985;SDS011;58645;43.068;25.610;2022-08-19T13:57:21;12.70;;;4.47;;
70985;SDS011;58645;43.068;25.610;2022-08-19T13:59:47;5.38;;;3.47;;
70985;SDS011;58645;43.068;25.610;2022-08-19T14:02:12;6.53;;;4.40;;
70985;SDS011;58645;43.068;25.610;2022-08-19T14:04:38;8.38;;;3.80;;
70985;SDS011;58645;43.068;25.610;2022-08-19T14:07:04;6.53;;;4.53;;
70985;SDS011;58645;43.068;25.610;2022-08-19T14:09:30;5.43;;;3.40;;
70985;SDS011;58645;43.068;25.610;2022-08-19T14:11:56;8.68;;;4.57;;
70985;SDS011;58645;43.068;25.610;2022-08-19T14:14:22;5.97;;;4.28;;
70985;SDS011;58645;43.068;25.610;2022-08-19T14:16:48;5.07;;;4.07;;
70985;SDS011;58645;43.068;25.610;2022-08-19T14:19:14;5.22;;;4.50;;
70985;SDS011;58645;43.068;25.610;2022-08-19T14:21:40;7.28;;;4.43;;
70985;SDS011;58645;43.068;25.610;2022-08-19T14:24:06;4.97;;;4.40;;
70985;SDS011;58645;43.068;25.610;2022-08-19T14:26:32;6.57;;;4.35;;
70985;SDS011;58645;43.068;25.610;2022-08-19T14:28:58;7.00;;;4.45;;
70985;SDS011;58645;43.068;25.610;2022-08-19T14:31:24;7.75;;;4.90;;
70985;SDS011;58645;43.068;25.610;2022-08-19T14:33:50;7.53;;;4.20;;
70985;SDS011;58645;43.068;25.610;2022-08-19T14:36:17;5.10;;;4.40;;
70985;SDS011;58645;43.068;25.610;2022-08-19T14:38:45;5.47;;;4.18;;
70985;SDS011;58645;43.068;25.610;2022-08-19T14:41:16;5.60;;;4.57;;
70985;SDS011;58645;43.068;25.610;2022-08-19T14:43:47;10.00;;;4.82;;
70985;SDS011;58645;43.068;25.610;2022-08-19T14:46:15;8.60;;;4.78;;
70985;SDS011;58645;43.068;25.610;2022-08-19T14:48:45;6.30;;;5.00;;
70985;SDS011;58645;43.068;25.610;2022-08-19T14:51:12;5.70;;;4.40;;
70985;SDS011;58645;43.068;25.610;2022-08-19T14:53:39;8.52;;;4.78;;
70985;SDS011;58645;43.068;25.610;2022-08-19T14:56:09;8.95;;;4.63;;
70985;SDS011;58645;43.068;25.610;2022-08-19T14:58:36;5.65;;;4.80;;
70985;SDS011;58645;43.068;25.610;2022-08-19T15:01:03;5.70;;;4.90;;
70985;SDS011;58645;43.068;25.610;2022-08-19T15:03:30;7.95;;;3.97;;
70985;SDS011;58645;43.068;25.610;2022-08-19T15:05:57;7.18;;;4.35;;
70985;SDS011;58645;43.068;25.610;2022-08-19T15:08:26;6.00;;;4.30;;
70985;SDS011;58645;43.068;25.610;2022-08-19T15:10:53;5.40;;;4.28;;
70985;SDS011;58645;43.068;25.610;2022-08-19T15:13:20;7.43;;;4.55;;
70985;SDS011;58645;43.068;25.610;2022-08-19T15:15:46;5.97;;;4.10;;
70985;SDS011;58645;43.068;25.610;2022-08-19T15:18:13;5.30;;;4.75;;
70985;SDS011;58645;43.068;25.610;2022-08-19T15:20:39;6.85;;;4.53;;
70985;SDS011;58645;43.068;25.610;2022-08-19T15:23:05;6.18;;;4.22;;